Time;durP1;ratioP1;P1;durP2;ratioP2;P2;SDS_P1;SDS_P2;PMS_P1;PMS_P2;Temp;Humidity;BMP_temperature;BMP_pressure;BME280_temperature;BME280_humidity;BME280_pressure;Samples;Min_cycle;Max_cycle;Signal;HPM_P1;HPM_P2
2024/01/28 00:01:49;;;;;;;;;;;;;;;9.35;47.19;102736.06;4969001;27;112278;-77
2024/01/28 00:04:15;;;;;;;;;;;;;;;9.34;46.51;102740.63;4985290;27;98655;-77
2024/01/28 00:06:41;;;;;;;;;;;;;;;9.33;47.31;102743.53;4970089;27;98452;-77
2024/01/28 00:09:07;;;;;;;;;;;;;;;9.30;46.92;102728.59;4967518;27;98205;-77
2024/01/28 00:11:34;;;;;;;;;;;;;;;9.30;46.56;102727.78;4983994;27;98233;-67
2024/01/28 00:14:00;;;;;;;;;;;;;;;9.27;46.90;102720.94;4989629;27;98187;-67
2024/01/28 00:16:26;;;;;;;;;;;;;;;9.26;47.38;102724.66;4986949;27;98226;-77
2024/01/28 00:18:57;;;;;;;;;;;;;;;9.25;47.09;102716.81;4975410;27;99448;-67
2024/01/28 00:21:24;;;;;;;;;;;;;;;9.23;47.30;102730.44;4976709;27;98317;-67
2024/01/28 00:23:51;;;;;;;;;;;;;;;9.21;47.22;102732.53;4964628;27;98122;-67
2024/01/28 00:26:17;;;;;;;;;;;;;;;9.21;47.33;102726.31;4968776;27;98195;-77
2024/01/28 00:28:44;;;;;;;;;;;;;;;9.19;46.51;102728.38;4977189;27;98219;-67
2024/01/28 00:31:10;;;;;;;;;;;;;;;9.18;47.22;102732.09;4979154;27;98019;-77
2024/01/28 00:33:36;;;;;;;;;;;;;;;9.16;47.00;102732.31;4965063;27;97987;-67
2024/01/28 00:36:03;;;;;;;;;;;;;;;9.14;47.47;102717.41;4973408;27;99561;-67
2024/01/28 00:38:31;;;;;;;;;;;;;;;9.13;47.10;102724.66;4971438;27;97846;-67
2024/01/28 00:40:58;;;;;;;;;;;;;;;9.13;46.54;102721.13;4967540;27;98168;-77
2024/01/28 00:43:24;;;;;;;;;;;;;;;9.10;46.93;102720.50;4967948;27;100223;-78
2024/01/28 00:45:50;;;;;;;;;;;;;;;9.09;46.78;102713.47;4968621;27;107193;-67
2024/01/28 00:48:16;;;;;;;;;;;;;;;9.08;46.66;102717.19;4993870;27;127644;-67
2024/01/28 00:50:43;;;;;;;;;;;;;;;9.07;46.66;102722.75;4970166;27;98559;-77
2024/01/28 00:53:09;;;;;;;;;;;;;;;9.06;46.60;102721.09;4973686;27;99047;-67
2024/01/28 00:55:35;;;;;;;;;;;;;;;9.04;46.97;102712.41;4970406;27;99144;-67
2024/01/28 00:58:04;;;;;;;;;;;;;;;9.02;47.24;102717.97;4978994;27;98233;-77
2024/01/28 01:00:31;;;;;;;;;;;;;;;9.02;46.86;102717.16;4962409;27;98830;-67
2024/01/28 01:02:57;;;;;;;;;;;;;;;8.99;47.01;102721.06;4977687;27;98729;-77
2024/01/28 01:05:23;;;;;;;;;;;;;;;9.00;47.13;102721.91;4968837;27;98092;-77
2024/01/28 01:07:49;;;;;;;;;;;;;;;8.98;47.09;102716.72;4983170;27;98682;-67
2024/01/28 01:10:15;;;;;;;;;;;;;;;8.97;47.28;102722.31;4971477;27;111290;-77
2024/01/28 01:12:41;;;;;;;;;;;;;;;8.96;47.36;102726.03;4987015;27;103963;-77
2024/01/28 01:15:07;;;;;;;;;;;;;;;8.95;47.31;102732.44;4979187;27;98285;-67
2024/01/28 01:17:33;;;;;;;;;;;;;;;8.94;47.29;102734.31;4982436;27;98296;-67
2024/01/28 01:20:01;;;;;;;;;;;;;;;8.93;47.23;102726.44;4973497;27;98097;-78
2024/01/28 01:22:27;;;;;;;;;;;;;;;8.91;47.29;102723.94;5001783;27;101939;-67
2024/01/28 01:24:53;;;;;;;;;;;;;;;8.90;46.92;102722.28;4979392;27;98289;-77
2024/01/28 01:27:19;;;;;;;;;;;;;;;8.89;47.22;102719.81;4973470;27;98096;-77
2024/01/28 01:29:45;;;;;;;;;;;;;;;8.88;47.61;102723.50;4989795;27;98070;-67
2024/01/28 01:32:11;;;;;;;;;;;;;;;8.87;46.71;102716.47;4978207;27;98083;-67
2024/01/28 01:34:37;;;;;;;;;;;;;;;8.84;47.02;102712.31;4973944;27;98088;-67
2024/01/28 01:37:04;;;;;;;;;;;;;;;8.84;47.63;102725.78;4969759;27;98013;-67
2024/01/28 01:39:30;;;;;;;;;;;;;;;8.83;46.92;102732.19;4981333;27;98875;-67
2024/01/28 01:41:56;;;;;;;;;;;;;;;8.82;46.67;102742.13;4984342;27;98346;-77
2024/01/28 01:44:23;;;;;;;;;;;;;;;8.80;47.02;102738.81;4967500;27;98309;-67
2024/01/28 01:46:49;;;;;;;;;;;;;;;8.79;46.79;102731.75;4971945;27;98172;-77
2024/01/28 01:49:15;;;;;;;;;;;;;;;8.81;47.22;102732.41;5000627;27;98068;-76
2024/01/28 01:51:41;;;;;;;;;;;;;;;8.87;47.16;102727.25;4966749;27;99807;-77
2024/01/28 01:54:07;;;;;;;;;;;;;;;8.92;47.00;102730.16;4976474;27;99587;-67
2024/01/28 01:56:36;;;;;;;;;;;;;;;8.97;47.28;102741.16;4963238;27;98222;-67
2024/01/28 01:59:05;;;;;;;;;;;;;;;9.00;46.63;102732.66;4968120;27;98245;-76
2024/01/28 02:01:32;;;;;;;;;;;;;;;9.02;46.78;102739.50;4966172;27;112242;-66
2024/01/28 02:03:58;;;;;;;;;;;;;;;9.04;46.66;102734.78;4986869;27;98125;-76
2024/01/28 02:06:25;;;;;;;;;;;;;;;9.06;47.23;102730.00;4984259;27;98442;-67
2024/01/28 02:08:51;;;;;;;;;;;;;;;9.06;46.95;102735.38;4976878;27;98146;-67
2024/01/28 02:11:18;;;;;;;;;;;;;;;9.08;46.66;102732.50;4986079;27;99132;-71
2024/01/28 02:13:44;;;;;;;;;;;;;;;9.07;47.22;102738.91;4984429;27;100550;-67
2024/01/28 02:16:10;;;;;;;;;;;;;;;9.07;47.42;102730.81;4985999;27;98278;-67
2024/01/28 02:18:37;;;;;;;;;;;;;;;9.06;46.74;102727.31;4982187;27;101107;-77
2024/01/28 02:21:03;;;;;;;;;;;;;;;9.06;46.64;102723.78;4975678;27;98490;-67
2024/01/28 02:23:29;;;;;;;;;;;;;;;9.05;47.26;102722.16;4984863;27;98171;-76
2024/01/28 02:25:55;;;;;;;;;;;;;;;9.05;47.74;102730.22;4965235;27;99492;-76
2024/01/28 02:28:22;;;;;;;;;;;;;;;9.03;47.30;102718.81;4984442;27;98131;-67
2024/01/28 02:30:48;;;;;;;;;;;;;;;9.03;47.09;102730.41;4970067;27;98250;-77
2024/01/28 02:33:14;;;;;;;;;;;;;;;9.01;47.21;102716.34;4972375;27;98406;-76
2024/01/28 02:35:40;;;;;;;;;;;;;;;9.01;47.03;102726.28;4969469;27;98030;-67
2024/01/28 02:38:06;;;;;;;;;;;;;;;8.99;47.57;102733.69;5003161;27;98127;-76
2024/01/28 02:40:32;;;;;;;;;;;;;;;8.99;47.33;102744.47;4967286;27;98049;-76
2024/01/28 02:43:00;;;;;;;;;;;;;;;8.97;47.19;102733.09;4968282;27;98027;-66
2024/01/28 02:45:26;;;;;;;;;;;;;;;8.95;47.42;102738.66;4959893;27;98963;-66
2024/01/28 02:47:52;;;;;;;;;;;;;;;8.95;47.03;102743.19;4961020;27;98170;-66
2024/01/28 02:50:18;;;;;;;;;;;;;;;8.92;47.60;102731.00;4976526;27;98453;-67
2024/01/28 02:52:44;;;;;;;;;;;;;;;8.92;46.73;102736.38;4996614;27;114575;-76
2024/01/28 02:55:10;;;;;;;;;;;;;;;8.90;47.37;102729.53;4999413;27;99538;-77
2024/01/28 02:57:36;;;;;;;;;;;;;;;8.89;47.00;102730.56;4975991;27;98158;-76
2024/01/28 03:00:04;;;;;;;;;;;;;;;8.88;47.28;102734.28;4968217;27;99580;-66
2024/01/28 03:02:30;;;;;;;;;;;;;;;8.87;47.11;102732.63;4978111;27;98201;-76
2024/01/28 03:04:56;;;;;;;;;;;;;;;8.85;46.95;102732.84;4980241;27;98146;-76
2024/01/28 03:07:22;;;;;;;;;;;;;;;8.84;47.22;102733.84;4982062;27;98222;-66
2024/01/28 03:09:48;;;;;;;;;;;;;;;8.83;47.17;102729.50;4964791;27;98229;-76
2024/01/28 03:12:14;;;;;;;;;;;;;;;8.81;47.31;102728.88;4993854;27;98289;-76
2024/01/28 03:14:40;;;;;;;;;;;;;;;8.81;47.50;102726.19;4969121;27;103373;-76
2024/01/28 03:17:09;;;;;;;;;;;;;;;8.78;46.92;102738.19;4961171;27;98128;-66
2024/01/28 03:19:35;;;;;;;;;;;;;;;8.78;46.77;102731.97;4965550;27;98059;-76
2024/01/28 03:22:01;;;;;;;;;;;;;;;8.77;47.12;102741.06;4985098;27;127685;-67
2024/01/28 03:24:27;;;;;;;;;;;;;;;8.77;46.64;102733.00;4992909;27;98008;-66
2024/01/28 03:26:54;;;;;;;;;;;;;;;8.74;47.13;102733.41;4973052;27;97890;-76
2024/01/28 03:29:20;;;;;;;;;;;;;;;8.74;47.00;102731.53;4961243;27;99295;-76
2024/01/28 03:31:46;;;;;;;;;;;;;;;8.73;46.67;102712.94;4986293;27;98219;-76
2024/01/28 03:34:12;;;;;;;;;;;;;;;8.72;47.14;102724.69;4966769;27;98389;-76
2024/01/28 03:36:39;;;;;;;;;;;;;;;8.70;47.12;102721.38;4971317;27;98794;-76
2024/01/28 03:39:05;;;;;;;;;;;;;;;8.68;47.06;102712.69;4996196;27;98125;-66
2024/01/28 03:41:31;;;;;;;;;;;;;;;8.69;47.07;102725.94;4989474;27;97849;-76
2024/01/28 03:43:58;;;;;;;;;;;;;;;8.67;46.77;102730.69;4994707;27;98279;-66
2024/01/28 03:46:24;;;;;;;;;;;;;;;8.67;47.22;102727.16;4963988;27;98248;-75
2024/01/28 03:48:50;;;;;;;;;;;;;;;8.65;47.63;102727.38;4984781;27;98392;-66
2024/01/28 03:51:16;;;;;;;;;;;;;;;8.64;47.50;102730.25;4984726;27;97981;-66
2024/01/28 03:53:42;;;;;;;;;;;;;;;8.63;46.90;102724.03;4989426;27;98652;-66
2024/01/28 03:56:09;;;;;;;;;;;;;;;8.63;47.05;102720.53;4962046;27;101536;-76
2024/01/28 03:58:35;;;;;;;;;;;;;;;8.61;47.06;102723.44;4980065;27;99768;-76
2024/01/28 04:01:03;;;;;;;;;;;;;;;8.60;47.27;102717.19;4975457;27;110773;-76
2024/01/28 04:03:29;;;;;;;;;;;;;;;8.60;47.08;102719.06;4983256;27;98379;-66
2024/01/28 04:05:55;;;;;;;;;;;;;;;8.59;46.85;102717.41;4980227;27;99878;-75
2024/01/28 04:08:21;;;;;;;;;;;;;;;8.58;47.45;102719.28;4960701;27;98236;-76
2024/01/28 04:10:47;;;;;;;;;;;;;;;8.58;47.08;102721.94;4984655;27;98429;-76
2024/01/28 04:13:14;;;;;;;;;;;;;;;8.58;47.37;102721.94;4986385;27;100631;-75
2024/01/28 04:15:40;;;;;;;;;;;;;;;8.56;46.85;102717.78;4976518;27;98298;-66
2024/01/28 04:18:07;;;;;;;;;;;;;;;8.56;47.15;102712.41;4980697;27;100174;-75
2024/01/28 04:20:33;;;;;;;;;;;;;;;8.55;47.32;102716.97;4994910;27;98290;-66
2024/01/28 04:22:59;;;;;;;;;;;;;;;8.54;47.07;102718.00;4972448;27;98051;-66
2024/01/28 04:25:26;;;;;;;;;;;;;;;8.54;46.75;102717.19;4978160;27;98332;-76
2024/01/28 04:27:52;;;;;;;;;;;;;;;8.52;47.34;102714.66;4979809;27;98444;-75
2024/01/28 04:30:18;;;;;;;;;;;;;;;8.51;47.05;102712.19;4980771;27;98626;-67
2024/01/28 04:32:45;;;;;;;;;;;;;;;8.50;47.58;102714.06;4965746;27;97957;-76
2024/01/28 04:35:14;;;;;;;;;;;;;;;8.50;47.06;102724.81;4972702;27;98075;-75
2024/01/28 04:37:41;;;;;;;;;;;;;;;8.49;47.26;102725.00;4973727;27;99354;-66
2024/01/28 04:40:08;;;;;;;;;;;;;;;8.48;47.05;102721.47;4969286;27;98252;-76
2024/01/28 04:42:34;;;;;;;;;;;;;;;8.46;46.77;102703.91;4963723;27;101197;-66
2024/01/28 04:45:00;;;;;;;;;;;;;;;8.45;47.10;102705.78;4970226;27;98960;-66
2024/01/28 04:47:27;;;;;;;;;;;;;;;8.46;46.73;102704.72;4963313;27;98403;-76
2024/01/28 04:49:53;;;;;;;;;;;;;;;8.44;46.87;102697.88;4987716;27;98389;-67
2024/01/28 04:52:20;;;;;;;;;;;;;;;8.42;46.75;102698.09;4974314;27;99399;-66
2024/01/28 04:54:47;;;;;;;;;;;;;;;8.43;47.11;102701.59;4981201;27;100414;-66
2024/01/28 04:57:13;;;;;;;;;;;;;;;8.42;47.47;102700.78;4976731;27;98185;-75
2024/01/28 04:59:39;;;;;;;;;;;;;;;8.41;47.06;102700.97;4964038;27;98247;-66
2024/01/28 05:02:06;;;;;;;;;;;;;;;8.40;46.85;102708.19;4986142;27;98298;-66
2024/01/28 05:04:32;;;;;;;;;;;;;;;8.39;46.55;102703.88;4987847;27;99073;-75
2024/01/28 05:06:59;;;;;;;;;;;;;;;8.38;46.61;102699.53;4970419;27;100146;-75
2024/01/28 05:09:27;;;;;;;;;;;;;;;8.39;47.12;102697.66;4978411;27;98719;-66
2024/01/28 05:11:54;;;;;;;;;;;;;;;8.36;47.30;102694.28;4970883;27;98142;-66
2024/01/28 05:14:21;;;;;;;;;;;;;;;8.36;47.05;102696.16;4964740;27;98470;-66
2024/01/28 05:16:48;;;;;;;;;;;;;;;8.37;46.96;102700.56;4968936;27;98005;-75
2024/01/28 05:19:14;;;;;;;;;;;;;;;8.33;47.07;102693.88;4979553;27;98069;-66
2024/01/28 05:21:40;;;;;;;;;;;;;;;8.34;46.70;102693.69;4967141;27;98148;-66
2024/01/28 05:24:06;;;;;;;;;;;;;;;8.33;47.05;102697.41;4969242;27;98510;-66
2024/01/28 05:26:32;;;;;;;;;;;;;;;8.33;47.21;102691.19;4982550;27;98212;-65
2024/01/28 05:29:04;;;;;;;;;;;;;;;8.32;47.27;102698.41;5000511;27;100087;-75
2024/01/28 05:31:31;;;;;;;;;;;;;;;8.31;47.08;102702.13;4983098;27;99683;-65
2024/01/28 05:33:57;;;;;;;;;;;;;;;8.31;46.81;102701.31;4970861;27;98978;-66
2024/01/28 05:36:23;;;;;;;;;;;;;;;8.29;46.77;102701.53;4962119;27;99458;-65
2024/01/28 05:38:49;;;;;;;;;;;;;;;8.29;47.03;102708.72;4978897;27;98414;-66
2024/01/28 05:41:15;;;;;;;;;;;;;;;8.27;47.09;102706.25;4961032;27;99325;-75
2024/01/28 05:43:41;;;;;;;;;;;;;;;8.26;47.03;102709.97;4975429;27;98173;-75
2024/01/28 05:46:07;;;;;;;;;;;;;;;8.25;47.05;102708.31;4966459;27;98394;-66
2024/01/28 05:48:34;;;;;;;;;;;;;;;8.23;46.71;102715.72;4964881;27;98379;-66
2024/01/28 05:51:00;;;;;;;;;;;;;;;8.24;47.13;102716.56;4963181;27;98796;-65
2024/01/28 05:53:26;;;;;;;;;;;;;;;8.22;47.26;102708.72;4963601;27;98081;-65
2024/01/28 05:55:53;;;;;;;;;;;;;;;8.21;46.87;102707.03;4982018;27;98125;-66
2024/01/28 05:58:20;;;;;;;;;;;;;;;8.20;46.72;102710.75;4969738;27;98093;-75
2024/01/28 06:00:47;;;;;;;;;;;;;;;8.20;47.39;102715.28;4977119;27;98217;-75
2024/01/28 06:03:13;;;;;;;;;;;;;;;8.19;46.89;102717.16;4970326;27;97981;-65
2024/01/28 06:05:39;;;;;;;;;;;;;;;8.18;47.04;102717.38;4962232;27;100310;-66
2024/01/28 06:08:06;;;;;;;;;;;;;;;8.18;46.75;102717.38;4967650;27;99791;-65
2024/01/28 06:10:32;;;;;;;;;;;;;;;8.17;46.70;102718.38;4981210;27;98112;-74
2024/01/28 06:12:59;;;;;;;;;;;;;;;8.15;47.18;102718.56;4991234;27;100224;-65
2024/01/28 06:15:25;;;;;;;;;;;;;;;8.15;46.75;102726.63;4985881;27;102842;-65
2024/01/28 06:17:51;;;;;;;;;;;;;;;8.14;47.43;102730.34;4969759;27;98200;-74
2024/01/28 06:20:17;;;;;;;;;;;;;;;8.13;46.96;102736.72;4963779;27;98920;-75
2024/01/28 06:22:43;;;;;;;;;;;;;;;8.13;47.18;102742.09;4982003;27;98277;-65
2024/01/28 06:25:10;;;;;;;;;;;;;;;8.10;47.18;102745.22;4979759;27;98173;-66
2024/01/28 06:27:36;;;;;;;;;;;;;;;8.11;46.95;102752.22;4967763;27;109380;-74
2024/01/28 06:30:02;;;;;;;;;;;;;;;8.10;47.23;102748.72;4976080;27;98682;-74
2024/01/28 06:32:28;;;;;;;;;;;;;;;8.09;47.40;102744.34;4959256;27;97991;-74
2024/01/28 06:34:55;;;;;;;;;;;;;;;8.08;46.89;102748.06;4962942;27;98659;-66
2024/01/28 06:37:21;;;;;;;;;;;;;;;8.09;46.77;102738.16;4984233;27;99221;-65
2024/01/28 06:39:51;;;;;;;;;;;;;;;8.07;47.12;102751.78;4961334;27;99209;-65
2024/01/28 06:42:18;;;;;;;;;;;;;;;8.07;46.86;102753.66;4991944;27;98123;-65
2024/01/28 06:44:44;;;;;;;;;;;;;;;8.06;47.18;102752.00;4980522;27;98184;-65
2024/01/28 06:47:10;;;;;;;;;;;;;;;8.06;46.99;102742.06;4982670;27;103239;-74
2024/01/28 06:49:37;;;;;;;;;;;;;;;8.06;47.41;102744.78;4981165;27;98400;-65
2024/01/28 06:52:03;;;;;;;;;;;;;;;8.06;47.35;102742.06;4959353;27;99473;-75
2024/01/28 06:54:30;;;;;;;;;;;;;;;8.05;47.00;102737.72;4978111;27;103840;-66
2024/01/28 06:56:56;;;;;;;;;;;;;;;8.05;47.03;102740.41;4964696;27;100340;-73
2024/01/28 06:59:23;;;;;;;;;;;;;;;8.06;47.24;102738.56;4977201;27;98096;-66
2024/01/28 07:01:50;;;;;;;;;;;;;;;8.07;46.73;102735.66;4978055;27;98100;-65
2024/01/28 07:04:16;;;;;;;;;;;;;;;8.08;47.03;102728.44;4960512;27;100180;-65
2024/01/28 07:06:42;;;;;;;;;;;;;;;8.09;46.93;102738.16;4956760;27;98252;-65
2024/01/28 07:09:08;;;;;;;;;;;;;;;8.09;47.07;102727.41;4958501;27;101773;-65
2024/01/28 07:11:34;;;;;;;;;;;;;;;8.12;47.20;102721.66;4978499;27;98869;-65
2024/01/28 07:14:01;;;;;;;;;;;;;;;8.14;46.62;102719.63;4980659;27;99107;-65
2024/01/28 07:16:26;;;;;;;;;;;;;;;8.19;46.50;102721.69;4955949;27;98318;-67
2024/01/28 07:18:52;;;;;;;;;;;;;;;8.23;47.04;102725.66;4979219;27;128392;-74
2024/01/28 07:21:18;;;;;;;;;;;;;;;8.27;46.60;102721.53;4989536;27;98395;-74
2024/01/28 07:23:44;;;;;;;;;;;;;;;8.32;46.90;102713.72;4971607;27;107234;-74
2024/01/28 07:26:10;;;;;;;;;;;;;;;8.39;46.38;102729.91;4976021;27;127582;-74
2024/01/28 07:28:36;;;;;;;;;;;;;;;8.46;46.55;102737.00;4963824;27;129376;-74
2024/01/28 07:31:03;;;;;;;;;;;;;;;8.53;46.63;102732.47;4973851;27;97924;-74
2024/01/28 07:33:29;;;;;;;;;;;;;;;8.60;46.91;102733.31;4993641;27;98143;-74
2024/01/28 07:35:55;;;;;;;;;;;;;;;8.68;46.58;102728.81;4978668;27;98631;-66
2024/01/28 07:38:21;;;;;;;;;;;;;;;8.77;46.68;102723.06;4975662;27;98007;-74
2024/01/28 07:40:47;;;;;;;;;;;;;;;8.85;46.50;102735.53;4966729;27;113704;-65
2024/01/28 07:43:13;;;;;;;;;;;;;;;8.95;46.74;102735.97;4973469;27;124785;-65
2024/01/28 07:45:39;;;;;;;;;;;;;;;9.06;46.95;102735.38;4976621;27;99468;-65
2024/01/28 07:48:06;;;;;;;;;;;;;;;9.17;46.60;102731.28;4965810;27;98365;-65
2024/01/28 07:50:31;;;;;;;;;;;;;;;9.28;46.62;102730.69;4981497;27;100107;-65
2024/01/28 07:52:57;;;;;;;;;;;;;;;9.40;45.82;102733.59;4963556;27;130651;-74
2024/01/28 07:55:24;;;;;;;;;;;;;;;9.57;46.32;102723.25;4961664;27;98769;-65
2024/01/28 07:57:50;;;;;;;;;;;;;;;9.78;46.09;102714.97;4993698;27;98186;-65
2024/01/28 08:00:16;;;;;;;;;;;;;;;10.02;46.09;102713.53;4981813;27;98125;-74
2024/01/28 08:02:42;;;;;;;;;;;;;;;10.35;45.54;102709.97;5001029;27;102516;-74
2024/01/28 08:05:08;;;;;;;;;;;;;;;10.76;45.72;102715.00;4980907;27;100160;-65
2024/01/28 08:07:34;;;;;;;;;;;;;;;11.31;45.07;102701.81;4978721;27;98412;-65
2024/01/28 08:10:01;;;;;;;;;;;;;;;11.65;44.98;102699.69;4975468;27;112619;-75
2024/01/28 08:12:27;;;;;;;;;;;;;;;12.03;44.90;102709.59;4962642;27;98262;-65
2024/01/28 08:14:53;;;;;;;;;;;;;;;12.33;44.60;102712.38;4984378;27;98108;-74
2024/01/28 08:17:19;;;;;;;;;;;;;;;12.65;44.54;102706.81;4960675;27;98039;-74
2024/01/28 08:19:45;;;;;;;;;;;;;;;13.21;44.22;102695.66;4963830;27;98381;-74
2024/01/28 08:22:12;;;;;;;;;;;;;;;13.69;44.12;102697.41;4993060;27;98563;-75
2024/01/28 08:24:38;;;;;;;;;;;;;;;14.27;44.10;102692.22;4976862;27;98082;-74
2024/01/28 08:27:05;;;;;;;;;;;;;;;14.90;43.69;102689.47;4981572;27;98334;-65
2024/01/28 08:29:31;;;;;;;;;;;;;;;15.56;43.41;102692.53;4978420;27;98278;-75
2024/01/28 08:31:57;;;;;;;;;;;;;;;16.11;43.41;102689.03;4987479;27;102910;-65
2024/01/28 08:34:23;;;;;;;;;;;;;;;16.64;43.45;102687.50;4993131;27;98277;-66
2024/01/28 08:36:50;;;;;;;;;;;;;;;17.26;43.38;102682.72;4965015;27;98260;-66
2024/01/28 08:39:16;;;;;;;;;;;;;;;17.93;43.24;102678.63;4960638;27;98484;-75
2024/01/28 08:41:42;;;;;;;;;;;;;;;18.64;42.96;102670.75;4975392;27;118567;-75
2024/01/28 08:44:09;;;;;;;;;;;;;;;19.45;42.75;102672.78;4994247;27;128210;-66
2024/01/28 08:46:39;;;;;;;;;;;;;;;20.23;42.41;102675.09;4965737;27;110035;-66
2024/01/28 08:49:05;;;;;;;;;;;;;;;20.86;42.36;102682.78;4967014;27;98241;-66
2024/01/28 08:51:31;;;;;;;;;;;;;;;21.24;42.38;102694.84;4965339;27;98515;-66
2024/01/28 08:53:57;;;;;;;;;;;;;;;21.65;42.52;102699.19;4962068;27;106939;-75
2024/01/28 08:56:23;;;;;;;;;;;;;;;22.14;42.24;102693.50;4973406;27;99561;-67
2024/01/28 08:58:49;;;;;;;;;;;;;;;22.76;42.18;102688.03;4982242;27;98691;-66
2024/01/28 09:01:15;;;;;;;;;;;;;;;23.56;42.00;102698.06;4974741;27;98592;-66
2024/01/28 09:03:41;;;;;;;;;;;;;;;24.61;41.49;102705.72;4978276;27;100213;-66
2024/01/28 09:06:07;;;;;;;;;;;;;;;25.76;40.87;102702.38;4976943;27;98826;-75
2024/01/28 09:08:34;;;;;;;;;;;;;;;26.65;40.09;102705.97;4978173;27;101166;-66
2024/01/28 09:11:00;;;;;;;;;;;;;;;27.01;40.26;102705.66;4983335;27;98178;-66
2024/01/28 09:13:26;;;;;;;;;;;;;;;27.04;40.74;102707.78;4965297;27;98226;-74
2024/01/28 09:15:55;;;;;;;;;;;;;;;26.89;41.07;102709.06;5000164;27;98113;-74
2024/01/28 09:18:21;;;;;;;;;;;;;;;26.91;41.49;102709.53;4961475;27;98120;-74
2024/01/28 09:20:47;;;;;;;;;;;;;;;26.95;41.75;102700.59;4964130;27;99715;-66
2024/01/28 09:23:13;;;;;;;;;;;;;;;26.93;41.85;102707.28;4984573;27;98569;-67
2024/01/28 09:25:40;;;;;;;;;;;;;;;26.90;42.08;102705.16;4976076;27;98336;-74
2024/01/28 09:28:07;;;;;;;;;;;;;;;26.91;42.54;102700.44;5012362;27;98182;-74
2024/01/28 09:30:33;;;;;;;;;;;;;;;26.95;42.52;102697.84;4994810;27;99560;-73
2024/01/28 09:32:59;;;;;;;;;;;;;;;26.98;42.33;102691.66;4962252;27;98519;-66
2024/01/28 09:35:25;;;;;;;;;;;;;;;27.19;42.40;102694.59;4964635;27;99398;-66
2024/01/28 09:37:54;;;;;;;;;;;;;;;27.25;42.70;102696.88;4980458;27;98133;-66
2024/01/28 09:40:20;;;;;;;;;;;;;;;27.41;42.41;102700.75;4998568;27;98532;-66
2024/01/28 09:43:02;;;;;;;;;;;;;;;27.37;42.70;102707.28;5000592;27;100133;-74
2024/01/28 09:45:28;;;;;;;;;;;;;;;27.28;42.89;102696.22;4976674;27;97989;-73
2024/01/28 09:47:55;;;;;;;;;;;;;;;27.38;42.83;102704.16;4960360;27;98332;-66
2024/01/28 09:50:21;;;;;;;;;;;;;;;28.10;41.86;102707.22;4963594;27;98323;-74
2024/01/28 09:52:47;;;;;;;;;;;;;;;29.80;40.29;102698.16;4992911;27;98437;-73
2024/01/28 09:55:13;;;;;;;;;;;;;;;30.83;39.27;102702.59;4963711;27;121524;-73
2024/01/28 09:57:39;;;;;;;;;;;;;;;30.02;40.35;102696.88;4970355;27;98483;-66
2024/01/28 10:00:07;;;;;;;;;;;;;;;28.20;42.13;102683.84;4963630;27;98448;-66
2024/01/28 10:02:35;;;;;;;;;;;;;;;27.09;43.16;102668.84;4967797;27;98442;-66
2024/01/28 10:05:02;;;;;;;;;;;;;;;26.28;43.97;102658.38;4989283;27;98161;-66
2024/01/28 10:07:28;;;;;;;;;;;;;;;25.61;44.29;102669.66;4981517;27;97862;-66
2024/01/28 10:09:57;;;;;;;;;;;;;;;25.01;44.77;102656.25;4981938;27;98499;-73
2024/01/28 10:12:25;;;;;;;;;;;;;;;24.45;44.94;102647.34;4979249;27;98356;-66
2024/01/28 10:14:51;;;;;;;;;;;;;;;23.93;45.43;102655.00;4994525;27;98513;-66
2024/01/28 10:17:19;;;;;;;;;;;;;;;23.45;45.52;102649.81;4967613;27;98296;-66
2024/01/28 10:19:45;;;;;;;;;;;;;;;23.01;45.85;102651.13;4960791;27;98609;-66
2024/01/28 10:22:12;;;;;;;;;;;;;;;22.60;45.72;102648.97;4961742;27;97991;-66
2024/01/28 10:24:41;;;;;;;;;;;;;;;22.21;45.96;102652.78;4957814;27;98306;-67
2024/01/28 10:27:07;;;;;;;;;;;;;;;21.81;45.93;102649.38;4963873;27;98395;-73
2024/01/28 10:29:34;;;;;;;;;;;;;;;21.46;46.02;102647.81;4974576;27;98624;-66
2024/01/28 10:32:03;;;;;;;;;;;;;;;21.13;46.20;102643.94;4990526;27;99047;-66
2024/01/28 10:34:29;;;;;;;;;;;;;;;20.82;46.02;102649.63;4961016;27;100572;-66
2024/01/28 10:36:55;;;;;;;;;;;;;;;20.53;46.26;102641.31;4968830;27;98167;-73
2024/01/28 10:39:22;;;;;;;;;;;;;;;20.26;46.22;102655.38;4980266;27;116559;-73
2024/01/28 10:41:54;;;;;;;;;;;;;;;19.99;46.42;102647.53;4964202;27;98041;-73
2024/01/28 10:44:20;;;;;;;;;;;;;;;19.76;46.34;102650.88;4962962;27;98488;-73
2024/01/28 10:46:46;;;;;;;;;;;;;;;19.53;46.40;102633.13;4980873;27;98337;-66
2024/01/28 10:49:13;;;;;;;;;;;;;;;19.34;46.46;102636.44;4960786;27;98978;-66
2024/01/28 10:51:39;;;;;;;;;;;;;;;19.16;46.33;102627.97;4962774;27;100629;-73
2024/01/28 10:54:09;;;;;;;;;;;;;;;19.01;46.28;102626.84;4962113;27;98157;-72
2024/01/28 10:56:37;;;;;;;;;;;;;;;18.85;46.40;102617.00;4962256;27;98163;-73
2024/01/28 10:59:02;;;;;;;;;;;;;;;18.72;46.32;102617.53;4980727;27;98368;-66
2024/01/28 11:01:29;;;;;;;;;;;;;;;18.61;46.43;102605.72;4959527;27;113869;-74
2024/01/28 11:03:55;;;;;;;;;;;;;;;18.51;46.31;102603.81;4972783;27;114789;-74
2024/01/28 11:06:21;;;;;;;;;;;;;;;18.42;46.24;102602.69;4978252;27;98583;-74
2024/01/28 11:08:47;;;;;;;;;;;;;;;18.34;46.19;102600.47;4985309;27;98313;-66
2024/01/28 11:11:13;;;;;;;;;;;;;;;18.27;46.06;102600.72;4965347;27;105659;-67
2024/01/28 11:13:40;;;;;;;;;;;;;;;18.21;46.10;102600.97;4982351;27;98242;-74
2024/01/28 11:16:07;;;;;;;;;;;;;;;18.15;46.16;102598.22;4992015;27;98159;-66
2024/01/28 11:18:33;;;;;;;;;;;;;;;18.10;46.11;102594.66;4963436;27;118192;-66
2024/01/28 11:21:10;;;;;;;;;;;;;;;18.05;46.04;102592.75;4987421;27;99793;-66
2024/01/28 11:23:43;;;;;;;;;;;;;;;17.99;46.00;102590.25;4967532;27;99353;-74
2024/01/28 11:26:16;;;;;;;;;;;;;;;17.90;46.08;102595.41;4981265;27;99337;-74
2024/01/28 11:28:46;;;;;;;;;;;;;;;17.84;46.23;102588.25;4966025;27;98410;-66
2024/01/28 11:31:32;;;;;;;;;;;;;;;17.76;46.20;102589.56;4957116;27;98387;-67
2024/01/28 11:34:19;;;;;;;;;;;;;;;17.66;46.04;102590.31;4961635;27;99475;-66
2024/01/28 11:36:46;;;;;;;;;;;;;;;17.59;46.13;102595.19;4978129;27;98545;-66
2024/01/28 11:39:13;;;;;;;;;;;;;;;17.50;46.09;102587.78;4965381;27;98200;-74
2024/01/28 11:41:41;;;;;;;;;;;;;;;17.42;46.28;102589.09;4954182;27;98086;-66
2024/01/28 11:44:08;;;;;;;;;;;;;;;17.31;46.07;102585.47;5000136;27;99434;-74
2024/01/28 11:46:38;;;;;;;;;;;;;;;17.21;46.14;102574.47;4990830;27;98258;-74
2024/01/28 11:49:07;;;;;;;;;;;;;;;17.11;46.20;102575.22;4961074;27;98534;-75
2024/01/28 11:51:34;;;;;;;;;;;;;;;17.01;46.21;102571.59;4972730;27;110232;-74
2024/01/28 11:54:00;;;;;;;;;;;;;;;16.89;46.19;102558.16;4976630;27;98776;-74
2024/01/28 11:56:30;;;;;;;;;;;;;;;16.78;46.42;102553.69;4960831;27;97834;-74
2024/01/28 11:58:56;;;;;;;;;;;;;;;16.65;46.42;102561.19;4980361;27;98325;-71
2024/01/28 12:01:23;;;;;;;;;;;;;;;16.54;46.31;102553.97;4960637;27;98335;-74
2024/01/28 12:03:55;;;;;;;;;;;;;;;16.44;46.46;102560.16;4959253;27;98346;-66
2024/01/28 12:06:22;;;;;;;;;;;;;;;16.31;46.52;102555.13;4980378;27;98725;-66
2024/01/28 12:08:49;;;;;;;;;;;;;;;16.22;46.46;102544.94;4977360;27;99476;-74
2024/01/28 12:11:21;;;;;;;;;;;;;;;16.10;46.55;102548.63;4960759;27;99253;-66
2024/01/28 12:13:50;;;;;;;;;;;;;;;16.04;46.51;102546.94;4983475;27;98359;-74
2024/01/28 12:16:19;;;;;;;;;;;;;;;16.01;46.48;102547.44;4960208;27;98646;-66
2024/01/28 12:18:45;;;;;;;;;;;;;;;15.99;46.53;102541.41;4973400;27;98514;-66
2024/01/28 12:21:33;;;;;;;;;;;;;;;15.97;46.60;102535.41;4966243;27;98273;-74
2024/01/28 12:23:59;;;;;;;;;;;;;;;15.93;46.55;102534.28;4979821;27;98392;-66
2024/01/28 12:26:26;;;;;;;;;;;;;;;15.87;46.65;102538.81;4956534;27;98033;-66
2024/01/28 12:28:52;;;;;;;;;;;;;;;15.83;46.67;102539.56;4955396;27;98274;-74
2024/01/28 12:31:19;;;;;;;;;;;;;;;15.78;46.50;102536.81;4976746;27;98071;-66
2024/01/28 12:33:45;;;;;;;;;;;;;;;15.74;46.50;102532.94;4961438;27;98379;-66
2024/01/28 12:36:12;;;;;;;;;;;;;;;15.69;46.65;102534.53;4963522;27;98261;-74
2024/01/28 12:38:41;;;;;;;;;;;;;;;15.62;46.72;102525.69;4982824;27;99902;-74